Time;durP1;ratioP1;P1;durP2;ratioP2;P2;SDS_P1;SDS_P2;PMS_P1;PMS_P2;Temp;Humidity;BMP_temperature;BMP_pressure;BME280_temperature;BME280_humidity;BME280_pressure;Samples;Min_cycle;Max_cycle;Signal;HPM_P1;HPM_P2
2023/09/30 00:02:12;;;;;;;0.00;0.00;;;;;;;;;;4988172;28;20698;-54
2023/09/30 00:04:38;;;;;;;0.00;0.00;;;;;;;;;;5012018;28;20046;-51
2023/09/30 00:07:05;;;;;;;0.00;0.00;;;;;;;;;;5011653;28;20076;-53
2023/09/30 00:09:31;;;;;;;0.00;0.00;;;;;;;;;;5011633;28;20035;-53
2023/09/30 00:11:57;;;;;;;0.00;0.00;;;;;;;;;;5011733;28;20048;-50
2023/09/30 00:14:23;;;;;;;0.00;0.00;;;;;;;;;;5010900;28;20546;-54
2023/09/30 00:16:50;;;;;;;0.00;0.00;;;;;;;;;;5003697;28;20103;-52
2023/09/30 00:19:16;;;;;;;0.00;0.00;;;13.20;99.90;;;;;;4992713;28;20034;-53
2023/09/30 00:21:42;;;;;;;0.00;0.00;;;13.10;99.90;;;;;;5012461;28;20055;-53
2023/09/30 00:24:08;;;;;;;0.00;0.00;;;13.40;99.90;;;;;;5010714;28;20025;-51
2023/09/30 00:26:33;;;;;;;0.00;0.00;;;13.00;99.90;;;;;;5012479;28;20068;-52
2023/09/30 00:28:59;;;;;;;0.00;0.00;;;13.10;99.90;;;;;;5011623;28;20044;-52
2023/09/30 00:31:24;;;;;;;0.00;0.00;;;13.20;99.90;;;;;;5010636;28;20044;-50
2023/09/30 00:33:50;;;;;;;0.00;0.00;;;13.10;99.90;;;;;;5011922;28;20033;-54
2023/09/30 00:36:16;;;;;;;0.00;0.00;;;13.00;99.90;;;;;;5010829;28;20037;-53
2023/09/30 00:38:42;;;;;;;0.00;0.00;;;13.10;99.90;;;;;;5011828;28;20111;-53
2023/09/30 00:41:07;;;;;;;0.00;0.00;;;13.10;99.90;;;;;;5010622;28;20038;-52
2023/09/30 00:43:34;;;;;;;0.00;0.00;;;13.10;99.90;;;;;;5011968;28;20025;-55
2023/09/30 00:46:06;;;;;;;0.00;0.00;;;13.10;99.90;;;;;;5011516;28;20025;-51
2023/09/30 00:48:33;;;;;;;0.00;0.00;;;13.00;99.90;;;;;;5011764;28;20134;-52
2023/09/30 00:50:59;;;;;;;0.00;0.00;;;13.10;99.90;;;;;;5011218;28;20291;-53
2023/09/30 00:53:25;;;;;;;0.00;0.00;;;13.10;99.90;;;;;;4990772;28;20037;-52
2023/09/30 00:55:54;;;;;;;0.00;0.00;;;11.50;99.90;;;;;;4992028;28;20042;-53
2023/09/30 00:58:20;;;;;;;0.00;0.00;;;13.00;99.90;;;;;;4992742;28;20159;-53
2023/09/30 01:00:46;;;;;;;0.00;0.00;;;12.90;99.90;;;;;;5004775;28;20974;-53
2023/09/30 01:03:12;;;;;;;0.00;0.00;;;13.10;99.90;;;;;;4990312;28;20041;-53
2023/09/30 01:05:38;;;;;;;0.00;0.00;;;13.10;99.90;;;;;;4992038;28;20501;-51
2023/09/30 01:08:04;;;;;;;0.00;0.00;;;13.00;99.90;;;;;;4990643;28;20524;-52
2023/09/30 01:10:30;;;;;;;0.00;0.00;;;13.00;99.90;;;;;;4991633;28;20802;-55
2023/09/30 01:12:55;;;;;;;0.00;0.00;;;13.10;99.90;;;;;;4991805;28;20048;-54
2023/09/30 01:15:21;;;;;;;0.00;0.00;;;13.20;99.90;;;;;;4990582;28;20107;-53
2023/09/30 01:17:46;;;;;;;0.00;0.00;;;13.00;99.90;;;;;;5005690;28;20048;-55
2023/09/30 01:20:16;;;;;;;0.00;0.00;;;13.10;99.90;;;;;;4990653;28;20348;-52
2023/09/30 01:22:44;;;;;;;0.00;0.00;;;13.00;99.90;;;;;;5003356;28;20139;-53
2023/09/30 01:25:11;;;;;;;0.00;0.00;;;13.10;99.90;;;;;;5011652;28;20109;-53
2023/09/30 01:27:36;;;;;;;0.00;0.00;;;13.10;99.90;;;;;;5012420;28;20132;-51
2023/09/30 01:30:02;;;;;;;0.00;0.00;;;13.10;99.90;;;;;;5010356;28;20037;-54
2023/09/30 01:32:28;;;;;;;0.00;0.00;;;13.20;99.90;;;;;;5010869;28;20037;-50
2023/09/30 01:34:53;;;;;;;0.00;0.00;;;13.20;99.90;;;;;;5011235;28;20050;-53
2023/09/30 01:37:19;;;;;;;0.00;0.00;;;13.00;99.90;;;;;;5009861;28;20373;-54
2023/09/30 01:39:45;;;;;;;0.00;0.00;;;13.00;99.90;;;;;;5014706;28;20075;-54
2023/09/30 01:42:11;;;;;;;0.00;0.00;;;13.30;99.90;;;;;;5004480;28;20068;-52
2023/09/30 01:44:37;;;;;;;0.00;0.00;;;13.00;99.90;;;;;;4995294;28;20052;-53
2023/09/30 01:47:02;;;;;;;0.00;0.00;;;13.00;99.90;;;;;;5012137;28;20042;-53
2023/09/30 01:49:28;;;;;;;0.00;0.00;;;13.00;99.90;;;;;;5015355;28;20406;-53
2023/09/30 01:51:53;;;;;;;0.00;0.00;;;13.00;99.90;;;;;;5007078;28;20674;-50
2023/09/30 01:54:19;;;;;;;0.00;0.00;;;13.00;99.90;;;;;;4994268;28;20056;-53
2023/09/30 01:56:45;;;;;;;0.00;0.00;;;13.10;99.90;;;;;;4994173;28;20069;-51
2023/09/30 01:59:10;;;;;;;0.00;0.00;;;12.90;99.90;;;;;;4993294;28;20757;-52
2023/09/30 02:01:36;;;;;;;0.00;0.00;;;13.00;99.90;;;;;;4989904;28;20390;-52
2023/09/30 02:04:02;;;;;;;0.00;0.00;;;13.10;99.90;;;;;;5010720;28;20034;-53
2023/09/30 02:06:27;;;;;;;0.00;0.00;;;13.00;99.90;;;;;;5014989;28;20039;-51
2023/09/30 02:08:53;;;;;;;0.00;0.00;;;13.10;99.90;;;;;;5013632;28;20531;-51
2023/09/30 02:11:18;;;;;;;0.00;0.00;;;13.00;99.90;;;;;;5014238;28;20090;-51
2023/09/30 02:13:44;;;;;;;0.00;0.00;;;13.00;99.90;;;;;;5015323;28;20424;-54
2023/09/30 02:16:14;;;;;;;0.00;0.00;;;12.90;99.90;;;;;;5014097;28;20072;-51
2023/09/30 02:18:42;;;;;;;0.00;0.00;;;12.80;99.90;;;;;;5015592;28;20037;-53
2023/09/30 02:21:08;;;;;;;0.00;0.00;;;12.80;99.90;;;;;;5012779;28;20092;-52
2023/09/30 02:23:35;;;;;;;0.00;0.00;;;12.70;99.90;;;;;;5008695;28;20068;-53
2023/09/30 02:26:01;;;;;;;0.00;0.00;;;12.80;99.90;;;;;;5013755;28;20096;-51
2023/09/30 02:28:27;;;;;;;0.00;0.00;;;12.70;99.90;;;;;;5014658;28;20288;-53
2023/09/30 02:30:53;;;;;;;0.00;0.00;;;12.70;99.90;;;;;;5012973;28;20040;-52
2023/09/30 02:33:19;;;;;;;0.00;0.00;;;12.70;99.90;;;;;;5013691;28;20148;-52
2023/09/30 02:35:45;;;;;;;0.00;0.00;;;12.70;99.90;;;;;;5013494;28;20493;-53
2023/09/30 02:38:11;;;;;;;0.00;0.00;;;12.90;99.90;;;;;;5000803;28;20100;-52
2023/09/30 02:40:38;;;;;;;0.00;0.00;;;12.60;99.90;;;;;;4990590;28;20045;-53
2023/09/30 02:43:04;;;;;;;0.00;0.00;;;12.70;99.90;;;;;;5002860;28;20041;-51
2023/09/30 02:45:30;;;;;;;0.00;0.00;;;12.70;99.90;;;;;;5015034;28;20041;-53
2023/09/30 02:47:55;;;;;;;0.00;0.00;;;12.60;99.90;;;;;;5013210;28;20044;-51
2023/09/30 02:50:21;;;;;;;0.00;0.00;;;;;;;;;;5012489;28;26493;-56
2023/09/30 02:52:47;;;;;;;0.00;0.00;;;;;;;;;;4997355;28;20041;-52
2023/09/30 02:55:13;;;;;;;0.00;0.00;;;;;;;;;;4993628;28;20033;-52
2023/09/30 02:57:40;;;;;;;0.00;0.00;;;;;;;;;;5013554;28;20037;-52
2023/09/30 03:00:26;;;;;;;0.00;0.00;;;;;;;;;;5010248;28;20815;-50
2023/09/30 03:02:55;;;;;;;0.00;0.00;;;;;;;;;;4995370;28;20728;-51
2023/09/30 03:05:22;;;;;;;0.00;0.00;;;;;;;;;;4994934;28;20600;-51
2023/09/30 03:07:50;;;;;;;0.00;0.00;;;;;;;;;;5005054;28;20120;-49
2023/09/30 03:10:23;;;;;;;0.00;0.00;;;;;;;;;;5012356;28;20044;-50
2023/09/30 03:12:53;;;;;;;0.00;0.00;;;;;;;;;;5011037;28;20037;-53
2023/09/30 03:15:19;;;;;;;0.00;0.00;;;;;;;;;;5011777;28;20348;-53
2023/09/30 03:17:45;;;;;;;0.00;0.00;;;;;;;;;;4998996;28;20038;-52
2023/09/30 03:20:12;;;;;;;0.00;0.00;;;;;;;;;;4992485;28;20081;-52
2023/09/30 03:22:42;;;;;;;0.00;0.00;;;;;;;;;;4993556;28;20261;-50
2023/09/30 03:25:09;;;;;;;0.00;0.00;;;;;;;;;;4992585;28;20042;-50
2023/09/30 03:27:36;;;;;;;0.00;0.00;;;;;;;;;;4992357;28;20144;-51
2023/09/30 03:30:05;;;;;;;0.00;0.00;;;;;;;;;;4993067;28;20069;-52
2023/09/30 03:32:33;;;;;;;0.00;0.00;;;;;;;;;;4992795;28;20053;-50
2023/09/30 03:35:00;;;;;;;0.00;0.00;;;;;;;;;;4993565;28;20417;-49
2023/09/30 03:37:26;;;;;;;0.00;0.00;;;;;;;;;;4991356;28;20877;-52
2023/09/30 03:39:54;;;;;;;0.00;0.00;;;;;;;;;;4991286;28;20827;-52
2023/09/30 03:42:20;;;;;;;0.00;0.00;;;;;;;;;;5000255;28;20042;-50
2023/09/30 03:44:46;;;;;;;0.00;0.00;;;;;;;;;;4999871;28;20915;-50
2023/09/30 03:47:12;;;;;;;0.00;0.00;;;;;;;;;;5010892;28;20048;-50
2023/09/30 03:49:38;;;;;;;0.00;0.00;;;;;;;;;;5013816;28;20401;-54
2023/09/30 03:52:06;;;;;;;0.00;0.00;;;;;;;;;;5009005;28;20046;-52
2023/09/30 03:54:32;;;;;;;0.00;0.00;;;;;;;;;;5013714;28;20559;-53
2023/09/30 03:56:59;;;;;;;0.00;0.00;;;;;;;;;;5013436;28;20045;-51
2023/09/30 03:59:26;;;;;;;0.00;0.00;;;;;;;;;;5011167;28;20485;-53
2023/09/30 04:01:53;;;;;;;0.00;0.00;;;;;;;;;;5012451;28;20989;-53
2023/09/30 04:04:21;;;;;;;0.00;0.00;;;;;;;;;;5011332;28;20029;-51
2023/09/30 04:06:47;;;;;;;0.00;0.00;;;;;;;;;;4998681;28;20038;-52
2023/09/30 04:09:13;;;;;;;0.00;0.00;;;;;;;;;;4991000;28;20034;-50
2023/09/30 04:11:42;;;;;;;0.00;0.00;;;;;;;;;;5006143;28;20041;-53
2023/09/30 04:14:08;;;;;;;0.00;0.00;;;;;;;;;;5012022;28;20469;-50
2023/09/30 04:16:38;;;;;;;0.00;0.00;;;;;;;;;;5007780;28;20042;-49
2023/09/30 04:19:07;;;;;;;0.00;0.00;;;;;;;;;;4991697;28;20041;-53
2023/09/30 04:21:34;;;;;;;0.00;0.00;;;;;;;;;;4991543;28;20405;-52
2023/09/30 04:24:00;;;;;;;0.00;0.00;;;;;;;;;;4992436;28;20034;-51
2023/09/30 04:26:26;;;;;;;0.00;0.00;;;;;;;;;;5001434;28;21402;-52
2023/09/30 04:28:56;;;;;;;0.00;0.00;;;;;;;;;;5012348;28;20037;-53
2023/09/30 04:31:23;;;;;;;0.00;0.00;;;;;;;;;;5009955;28;20996;-51
2023/09/30 04:33:53;;;;;;;0.00;0.00;;;;;;;;;;5010328;28;20827;-51
2023/09/30 04:36:19;;;;;;;0.00;0.00;;;;;;;;;;5010981;28;20033;-49
2023/09/30 04:38:45;;;;;;;0.00;0.00;;;;;;;;;;5010056;28;20037;-50
2023/09/30 04:41:12;;;;;;;0.00;0.00;;;;;;;;;;5010910;28;20041;-54
2023/09/30 04:43:39;;;;;;;0.00;0.00;;;;;;;;;;5010730;28;20025;-51
2023/09/30 04:46:07;;;;;;;0.00;0.00;;;;;;;;;;5009598;28;20033;-53
2023/09/30 04:48:33;;;;;;;0.00;0.00;;;;;;;;;;5011365;28;20681;-53
2023/09/30 04:50:58;;;;;;;0.00;0.00;;;;;;;;;;5011961;28;20029;-51
2023/09/30 04:53:24;;;;;;;0.00;0.00;;;;;;;;;;4988728;28;20096;-49
2023/09/30 04:55:51;;;;;;;0.00;0.00;;;;;;;;;;4997073;28;20757;-51
2023/09/30 04:58:17;;;;;;;0.00;0.00;;;;;;;;;;4999182;28;20654;-51
2023/09/30 05:00:43;;;;;;;0.00;0.00;;;;;;;;;;4990436;28;20091;-51
2023/09/30 05:03:09;;;;;;;0.00;0.00;;;;;;;;;;4990637;28;20692;-51
2023/09/30 05:05:35;;;;;;;0.00;0.00;;;;;;;;;;5010177;28;20041;-49
2023/09/30 05:08:01;;;;;;;0.00;0.00;;;;;;;;;;5009295;28;20120;-51
2023/09/30 05:10:28;;;;;;;0.00;0.00;;;;;;;;;;5007211;28;20042;-49
2023/09/30 05:12:54;;;;;;;0.00;0.00;;;;;;;;;;4996037;28;20034;-52
2023/09/30 05:15:20;;;;;;;0.00;0.00;;;;;;;;;;5015679;28;20046;-51
2023/09/30 05:17:47;;;;;;;0.00;0.00;;;;;;;;;;5015179;28;20080;-53
2023/09/30 05:20:13;;;;;;;0.00;0.00;;;;;;;;;;5007040;28;20128;-51
2023/09/30 05:22:45;;;;;;;0.00;0.00;;;;;;;;;;5017599;28;20130;-51
2023/09/30 05:25:11;;;;;;;0.00;0.00;;;;;;;;;;5017318;28;20574;-51
2023/09/30 05:27:37;;;;;;;0.00;0.00;;;;;;;;;;5015059;28;20046;-49
2023/09/30 05:30:05;;;;;;;0.00;0.00;;;;;;;;;;5031449;28;20115;-50
2023/09/30 05:32:31;;;;;;;0.00;0.00;;;;;;;;;;5018621;28;20433;-50
2023/09/30 05:34:57;;;;;;;0.00;0.00;;;;;;;;;;5002864;28;20188;-52
2023/09/30 05:37:24;;;;;;;0.00;0.00;;;;;;;;;;4988407;28;20049;-53
2023/09/30 05:39:50;;;;;;;0.00;0.00;;;;;;;;;;4997400;28;20037;-50
2023/09/30 05:42:18;;;;;;;0.00;0.00;;;;;;;;;;4998659;28;20133;-50
2023/09/30 05:44:44;;;;;;;0.00;0.00;;;;;;;;;;5021898;28;20061;-52
2023/09/30 05:47:10;;;;;;;0.00;0.00;;;;;;;;;;5016899;28;20038;-51
2023/09/30 05:49:36;;;;;;;0.00;0.00;;;;;;;;;;5016776;28;20464;-52
2023/09/30 05:52:02;;;;;;;0.00;0.00;;;;;;;;;;4993199;28;20144;-53
2023/09/30 05:54:28;;;;;;;0.00;0.00;;;;;;;;;;4997710;28;20141;-51
2023/09/30 05:56:56;;;;;;;0.00;0.00;;;;;;;;;;4998621;28;20588;-50
2023/09/30 05:59:25;;;;;;;0.00;0.00;;;;;;;;;;4996366;28;20038;-50
2023/09/30 06:01:51;;;;;;;0.00;0.00;;;;;;;;;;5012719;28;20037;-50
2023/09/30 06:04:17;;;;;;;0.00;0.00;;;;;;;;;;5031236;28;20308;-52
2023/09/30 06:06:43;;;;;;;0.00;0.00;;;;;;;;;;5017201;28;20032;-51
2023/09/30 06:09:09;;;;;;;0.00;0.00;;;;;;;;;;5016168;28;20033;-50
2023/09/30 06:11:35;;;;;;;0.00;0.00;;;;;;;;;;5016901;28;20037;-51
2023/09/30 06:14:02;;;;;;;0.00;0.00;;;;;;;;;;5021250;28;20516;-53
2023/09/30 06:16:31;;;;;;;0.00;0.00;;;;;;;;;;5016798;28;20482;-51
2023/09/30 06:18:57;;;;;;;0.00;0.00;;;;;;;;;;5012537;28;20371;-52
2023/09/30 06:21:25;;;;;;;0.00;0.00;;;;;;;;;;5008609;28;20036;-53
2023/09/30 06:23:53;;;;;;;0.00;0.00;;;;;;;;;;5018601;28;20029;-50
2023/09/30 06:26:20;;;;;;;0.00;0.00;;;;;;;;;;5011654;28;20919;-50
2023/09/30 06:28:47;;;;;;;0.00;0.00;;;;;;;;;;5012565;28;20093;-52
2023/09/30 06:31:14;;;;;;;0.00;0.00;;;;;;;;;;5013443;28;20493;-52
2023/09/30 06:33:40;;;;;;;0.00;0.00;;;;;;;;;;5021286;28;20037;-50
2023/09/30 06:36:10;;;;;;;0.00;0.00;;;;;;;;;;5013465;28;20056;-52
2023/09/30 06:38:37;;;;;;;0.00;0.00;;;;;;;;;;5014579;28;20816;-50
2023/09/30 06:41:03;;;;;;;0.00;0.00;;;;;;;;;;5012194;28;20048;-49
2023/09/30 06:43:29;;;;;;;0.00;0.00;;;;;;;;;;5018958;28;20790;-51
2023/09/30 06:45:55;;;;;;;0.00;0.00;;;;;;;;;;5013753;28;20030;-53
2023/09/30 06:48:21;;;;;;;0.00;0.00;;;;;;;;;;5013378;28;20522;-50
2023/09/30 06:50:49;;;;;;;0.00;0.00;;;;;;;;;;4995574;28;20836;-51
2023/09/30 06:53:15;;;;;;;0.00;0.00;;;;;;;;;;5008264;28;20053;-48
2023/09/30 06:55:43;;;;;;;0.00;0.00;;;;;;;;;;5004543;28;20115;-50
2023/09/30 06:58:10;;;;;;;0.00;0.00;;;;;;;;;;5012804;28;20044;-51
2023/09/30 07:00:36;;;;;;;0.00;0.00;;;;;;;;;;5014552;28;20065;-51
2023/09/30 07:03:02;;;;;;;0.00;0.00;;;;;;;;;;5021602;28;20141;-51
2023/09/30 07:05:29;;;;;;;0.00;0.00;;;13.40;99.90;;;;;;5017768;28;20065;-48
2023/09/30 07:07:55;;;;;;;0.00;0.00;;;13.50;99.90;;;;;;5013649;28;20037;-49
2023/09/30 07:10:21;;;;;;;0.00;0.00;;;13.50;99.90;;;;;;5012511;28;20106;-52
2023/09/30 07:12:48;;;;;;;0.00;0.00;;;;;;;;;;4999253;28;20045;-52
2023/09/30 07:15:16;;;;;;;0.00;0.00;;;13.70;99.90;;;;;;4991561;28;20044;-49
2023/09/30 07:17:45;;;;;;;0.00;0.00;;;;;;;;;;4985030;28;20037;-50
2023/09/30 07:20:11;;;;;;;0.00;0.00;;;13.20;99.90;;;;;;5020284;28;20594;-49
2023/09/30 07:22:38;;;;;;;0.00;0.00;;;;;;;;;;4994591;28;20042;-53
2023/09/30 07:25:05;;;;;;;0.00;0.00;;;;;;;;;;4987701;28;20049;-54
2023/09/30 07:27:30;;;;;;;0.00;0.00;;;13.20;99.90;;;;;;5018337;28;20732;-53
2023/09/30 07:29:57;;;;;;;0.00;0.00;;;;;;;;;;5014183;28;20045;-53
2023/09/30 07:32:23;;;;;;;0.00;0.00;;;;;;;;;;5018524;28;20797;-53
2023/09/30 07:34:50;;;;;;;0.00;0.00;;;;;;;;;;5013719;28;20030;-55
2023/09/30 07:37:17;;;;;;;0.00;0.00;;;;;;;;;;5012298;28;20041;-53
2023/09/30 07:39:44;;;;;;;0.00;0.00;;;;;;;;;;5012955;28;20044;-54
2023/09/30 07:42:10;;;;;;;0.00;0.00;;;;;;;;;;5011774;28;20076;-54
2023/09/30 07:44:37;;;;;;;0.00;0.00;;;;;;;;;;5017439;28;20049;-50
2023/09/30 07:47:03;;;;;;;0.00;0.00;;;;;;;;;;5015905;28;20409;-50
2023/09/30 07:49:32;;;;;;;0.00;0.00;;;;;;;;;;5014000;28;20130;-50
2023/09/30 07:51:59;;;;;;;0.00;0.00;;;;;;;;;;5012131;28;20045;-48
2023/09/30 07:54:25;;;;;;;0.00;0.00;;;;;;;;;;5011976;28;20117;-50
2023/09/30 07:56:51;;;;;;;0.00;0.00;;;;;;;;;;5012552;28;20428;-48
2023/09/30 07:59:17;;;;;;;0.00;0.00;;;;;;;;;;5011285;28;20052;-50
2023/09/30 08:01:43;;;;;;;0.00;0.00;;;;;;;;;;5011726;28;20095;-50
2023/09/30 08:04:09;;;;;;;0.00;0.00;;;;;;;;;;5011957;28;20305;-52
2023/09/30 08:06:35;;;;;;;0.00;0.00;;;;;;;;;;5012172;28;20412;-51
2023/09/30 08:09:02;;;;;;;0.00;0.00;;;;;;;;;;5018408;28;20046;-50
2023/09/30 08:11:30;;;;;;;0.00;0.00;;;;;;;;;;5022757;28;20041;-52
2023/09/30 08:13:58;;;;;;;0.00;0.00;;;;;;;;;;5012332;28;20037;-51
2023/09/30 08:16:24;;;;;;;0.00;0.00;;;;;;;;;;5011220;28;20619;-52
2023/09/30 08:18:50;;;;;;;0.00;0.00;;;;;;;;;;5021803;28;20038;-53
2023/09/30 08:21:16;;;;;;;0.00;0.00;;;;;;;;;;5011359;28;20032;-48
2023/09/30 08:23:42;;;;;;;0.00;0.00;;;;;;;;;;5016067;28;20033;-53
2023/09/30 08:26:08;;;;;;;0.00;0.00;;;;;;;;;;5010858;28;20033;-54
2023/09/30 08:28:35;;;;;;;0.00;0.00;;;;;;;;;;5011689;28;20029;-51
2023/09/30 08:31:04;;;;;;;0.00;0.00;;;;;;;;;;5012063;28;20041;-52
2023/09/30 08:33:30;;;;;;;0.00;0.00;;;;;;;;;;5010727;28;20041;-48
2023/09/30 08:35:58;;;;;;;0.00;0.00;;;;;;;;;;5010229;28;20119;-51
2023/09/30 08:38:24;;;;;;;0.00;0.00;;;;;;;;;;5008931;28;20104;-53
2023/09/30 08:40:52;;;;;;;0.00;0.00;;;15.50;99.90;;;;;;5011936;28;20099;-51
2023/09/30 08:43:23;;;;;;;0.00;0.00;;;15.80;99.90;;;;;;5011233;28;20124;-49
2023/09/30 08:45:53;;;;;;;0.00;0.00;;;15.80;99.90;;;;;;5010268;28;20049;-49
2023/09/30 08:48:20;;;;;;;0.00;0.00;;;15.80;99.90;;;;;;4996908;28;20137;-50
2023/09/30 08:50:47;;;;;;;0.00;0.00;;;15.90;99.90;;;;;;4994966;28;20122;-49
2023/09/30 08:53:16;;;;;;;0.00;0.00;;;15.90;99.90;;;;;;4992838;28;20668;-52
2023/09/30 08:55:43;;;;;;;0.00;0.00;;;15.90;99.90;;;;;;4999581;28;20661;-52
2023/09/30 08:58:09;;;;;;;0.00;0.00;;;16.00;99.90;;;;;;5016336;28;20036;-51
2023/09/30 09:00:35;;;;;;;0.00;0.00;;;16.10;99.90;;;;;;5025152;28;20029;-50
2023/09/30 09:03:01;;;;;;;0.00;0.00;;;16.00;99.90;;;;;;5011655;28;20044;-50
2023/09/30 09:05:27;;;;;;;0.00;0.00;;;16.10;99.90;;;;;;5013547;28;20068;-49
2023/09/30 09:07:52;;;;;;;0.00;0.00;;;16.20;99.90;;;;;;5010082;28;20147;-52
2023/09/30 09:10:18;;;;;;;0.00;0.00;;;15.90;99.90;;;;;;5012608;28;20152;-53
2023/09/30 09:12:58;;;;;;;0.00;0.00;;;16.40;99.90;;;;;;5019611;28;20464;-50
2023/09/30 09:15:25;;;;;;;0.00;0.00;;;16.50;99.90;;;;;;5005171;28;20052;-53
2023/09/30 09:17:51;;;;;;;0.00;0.00;;;16.60;99.90;;;;;;4986458;28;20069;-51
2023/09/30 09:20:20;;;;;;;0.00;0.00;;;16.70;99.90;;;;;;4987948;28;20171;-51
2023/09/30 09:22:47;;;;;;;0.00;0.00;;;16.70;99.90;;;;;;5014515;28;20041;-52
2023/09/30 09:25:13;;;;;;;0.00;0.00;;;16.80;99.90;;;;;;5015022;28;20405;-53
2023/09/30 09:27:39;;;;;;;0.00;0.00;;;16.80;99.90;;;;;;5022870;28;20066;-53
2023/09/30 09:30:18;;;;;;;0.00;0.00;;;16.80;99.90;;;;;;5009249;28;20189;-53
2023/09/30 09:33:03;;;;;;;0.00;0.00;;;16.80;99.90;;;;;;4990993;28;20305;-53
2023/09/30 09:35:30;;;;;;;0.00;0.00;;;17.00;99.90;;;;;;4994508;28;20061;-53
2023/09/30 09:38:04;;;;;;;0.00;0.00;;;16.90;99.90;;;;;;5010473;28;20073;-53
2023/09/30 09:40:34;;;;;;;0.00;0.00;;;17.10;99.90;;;;;;5008546;28;20037;-54
2023/09/30 09:43:04;;;;;;;0.00;0.00;;;17.00;99.90;;;;;;5011012;28;20053;-51
2023/09/30 09:45:32;;;;;;;0.00;0.00;;;17.10;99.90;;;;;;5010676;28;20529;-55
2023/09/30 09:47:58;;;;;;;0.00;0.00;;;17.00;99.90;;;;;;5010518;28;20520;-53
2023/09/30 09:50:25;;;;;;;0.00;0.00;;;17.00;99.90;;;;;;5009019;28;20045;-54
2023/09/30 09:52:55;;;;;;;0.00;0.00;;;17.10;99.90;;;;;;5010325;28;20038;-53
2023/09/30 09:55:24;;;;;;;0.00;0.00;;;17.00;99.90;;;;;;5009145;28;20026;-50
2023/09/30 09:57:50;;;;;;;0.00;0.00;;;16.90;99.90;;;;;;5009678;28;20072;-53
2023/09/30 10:00:18;;;;;;;0.00;0.00;;;17.10;99.90;;;;;;5016758;28;20501;-53
2023/09/30 10:02:48;;;;;;;0.00;0.00;;;17.20;99.90;;;;;;5013238;28;20540;-53
2023/09/30 10:05:15;;;;;;;0.00;0.00;;;17.20;99.90;;;;;;5013606;28;20551;-53
2023/09/30 10:07:48;;;;;;;0.00;0.00;;;;;;;;;;5014900;28;20041;-50
2023/09/30 10:10:17;;;;;;;0.00;0.00;;;17.30;99.90;;;;;;5011799;28;20041;-53
2023/09/30 10:12:42;;;;;;;0.00;0.00;;;17.50;99.90;;;;;;4999646;28;20119;-53
2023/09/30 10:15:28;;;;;;;0.00;0.00;;;17.40;99.90;;;;;;5013118;28;20144;-53
2023/09/30 10:18:00;;;;;;;0.00;0.00;;;17.60;99.90;;;;;;4988426;28;20038;-54
2023/09/30 10:20:30;;;;;;;0.00;0.00;;;17.60;99.90;;;;;;4997570;28;20814;-51
2023/09/30 10:23:15;;;;;;;0.00;0.00;;;;;;;;;;5016512;28;20038;-54
2023/09/30 10:25:46;;;;;;;0.00;0.00;;;;;;;;;;5003944;28;20041;-54
2023/09/30 10:28:31;;;;;;;0.00;0.00;;;;;;;;;;4991829;28;20030;-54
2023/09/30 10:31:19;;;;;;;0.00;0.00;;;;;;;;;;4993569;28;20127;-54
2023/09/30 10:36:28;;;;;;;0.00;0.00;;;;;;;;;;5012169;28;20048;-52
2023/09/30 10:38:54;;;;;;;0.00;0.00;;;;;;;;;;5014596;28;20049;-53
2023/09/30 10:41:39;;;;;;;0.00;0.00;;;;;;;;;;5012770;28;20037;-53
2023/09/30 10:44:25;;;;;;;0.00;0.00;;;;;;;;;;5012465;28;20033;-53
2023/09/30 10:46:51;;;;;;;0.00;0.00;;;;;;;;;;5011436;28;20048;-53
2023/09/30 10:49:38;;;;;;;0.00;0.00;;;;;;;;;;5010463;28;20038;-53
2023/09/30 10:52:04;;;;;;;0.00;0.00;;;;;;;;;;5012423;28;20073;-54
2023/09/30 10:54:32;;;;;;;0.00;0.00;;;;;;;;;;5002900;28;20041;-51
2023/09/30 10:56:59;;;;;;;0.00;0.00;;;;;;;;;;5009312;28;20568;-50
2023/09/30 10:59:32;;;;;;;0.00;0.00;;;;;;;;;;5002095;28;20259;-53
2023/09/30 11:01:58;;;;;;;0.00;0.00;;;;;;;;;;5011817;28;20091;-54
2023/09/30 11:04:27;;;;;;;0.00;0.00;;;;;;;;;;5007743;28;20036;-50
2023/09/30 11:06:53;;;;;;;0.00;0.00;;;;;;;;;;5012886;28;20030;-54
2023/09/30 11:09:20;;;;;;;0.00;0.00;;;;;;;;;;5011180;28;20048;-53
2023/09/30 11:11:50;;;;;;;0.00;0.00;;;;;;;;;;5012407;28;20719;-53
2023/09/30 11:14:22;;;;;;;0.00;0.00;;;;;;;;;;5012424;28;20033;-52
2023/09/30 11:16:48;;;;;;;0.00;0.00;;;;;;;;;;5011653;28;20033;-53
2023/09/30 11:19:21;;;;;;;0.00;0.00;;;;;;;;;;4990784;28;20069;-53
2023/09/30 11:21:48;;;;;;;0.00;0.00;;;;;;;;;;4993631;28;20603;-54
2023/09/30 11:24:15;;;;;;;0.00;0.00;;;;;;;;;;4990041;28;20053;-53
2023/09/30 11:26:41;;;;;;;0.00;0.00;;;;;;;;;;4992378;28;20466;-53
2023/09/30 11:29:07;;;;;;;0.00;0.00;;;;;;;;;;5008333;28;20033;-54
2023/09/30 11:31:34;;;;;;;0.00;0.00;;;;;;;;;;4993162;28;20034;-52
2023/09/30 11:34:03;;;;;;;0.00;0.00;;;;;;;;;;4989164;28;20743;-54
2023/09/30 11:36:30;;;;;;;0.00;0.00;;;;;;;;;;5012980;28;20064;-52
2023/09/30 11:38:56;;;;;;;0.00;0.00;;;;;;;;;;5013400;28;20040;-53
2023/09/30 11:41:22;;;;;;;0.00;0.00;;;;;;;;;;4996838;28;20038;-53
2023/09/30 11:44:01;;;;;;;0.00;0.00;;;;;;;;;;5003602;28;20038;-53
2023/09/30 11:46:28;;;;;;;0.00;0.00;;;;;;;;;;5009428;28;20118;-54
2023/09/30 11:49:12;;;;;;;0.00;0.00;;;;;;;;;;5011180;28;20044;-53
2023/09/30 11:51:46;;;;;;;0.00;0.00;;;;;;;;;;5008976;28;20037;-52
2023/09/30 11:54:12;;;;;;;0.00;0.00;;;;;;;;;;5009044;28;20099;-54
2023/09/30 11:56:38;;;;;;;0.00;0.00;;;;;;;;;;5011197;28;20541;-51
2023/09/30 11:59:04;;;;;;;0.00;0.00;;;;;;;;;;5004416;28;20037;-54
2023/09/30 12:01:32;;;;;;;0.00;0.00;;;;;;;;;;5004401;28;20470;-53
2023/09/30 12:03:58;;;;;;;0.00;0.00;;;;;;;;;;5004963;28;20033;-49
2023/09/30 12:06:24;;;;;;;0.00;0.00;;;;;;;;;;4990223;28;20294;-52
2023/09/30 12:08:51;;;;;;;0.00;0.00;;;;;;;;;;4992865;28;20164;-55
2023/09/30 12:11:17;;;;;;;0.00;0.00;;;;;;;;;;4990468;28;20124;-54
2023/09/30 12:13:44;;;;;;;0.00;0.00;;;;;;;;;;4992260;28;20045;-52
2023/09/30 12:16:12;;;;;;;0.00;0.00;;;;;;;;;;4993369;28;20889;-53
2023/09/30 12:18:38;;;;;;;0.00;0.00;;;;;;;;;;4996549;28;20049;-54
2023/09/30 12:21:06;;;;;;;0.00;0.00;;;;;;;;;;4990619;28;20042;-54
2023/09/30 12:23:32;;;;;;;0.00;0.00;;;;;;;;;;5006586;28;20034;-53
2023/09/30 12:25:58;;;;;;;0.00;0.00;;;;;;;;;;4995083;28;20038;-52
2023/09/30 12:28:26;;;;;;;0.00;0.00;;;;;;;;;;4992768;28;20029;-52
2023/09/30 12:30:52;;;;;;;0.00;0.00;;;;;;;;;;4994618;28;20049;-50
2023/09/30 12:33:18;;;;;;;0.00;0.00;;;;;;;;;;4985756;28;20042;-53
2023/09/30 12:35:44;;;;;;;0.00;0.00;;;;;;;;;;4986188;28;20121;-54
2023/09/30 12:38:10;;;;;;;0.00;0.00;;;;;;;;;;4996871;28;20472;-52
2023/09/30 12:40:36;;;;;;;0.00;0.00;;;;;;;;;;4997852;28;20100;-54
2023/09/30 12:43:02;;;;;;;0.00;0.00;;;;;;;;;;4992567;28;20049;-54
2023/09/30 12:45:30;;;;;;;0.00;0.00;;;;;;;;;;4992357;28;20040;-52
2023/09/30 12:47:56;;;;;;;0.00;0.00;;;;;;;;;;5006463;28;20052;-52
2023/09/30 12:50:22;;;;;;;0.00;0.00;;;;;;;;;;5011639;28;20124;-54
2023/09/30 12:52:49;;;;;;;0.00;0.00;;;;;;;;;;5009921;28;20033;-54
2023/09/30 12:55:14;;;;;;;0.00;0.00;;;;;;;;;;5011277;28;20047;-54
2023/09/30 12:57:41;;;;;;;0.00;0.00;;;;;;;;;;5012314;28;20037;-53
2023/09/30 13:00:09;;;;;;;0.00;0.00;;;;;;;;;;5010201;28;20038;-52
2023/09/30 13:02:35;;;;;;;0.00;0.00;;;;;;;;;;5013538;28;20037;-53
2023/09/30 13:05:01;;;;;;;0.00;0.00;;;;;;;;;;5014201;28;20429;-54
2023/09/30 13:07:27;;;;;;;0.00;0.00;;;;;;;;;;5011311;28;20040;-54
2023/09/30 13:09:53;;;;;;;0.00;0.00;;;;;;;;;;5008484;28;20317;-54
2023/09/30 13:12:19;;;;;;;0.00;0.00;;;;;;;;;;5007639;28;20029;-52
2023/09/30 13:14:45;;;;;;;0.00;0.00;;;;;;;;;;5006977;28;20042;-50
2023/09/30 13:17:14;;;;;;;0.00;0.00;;;;;;;;;;4995457;28;20679;-55
2023/09/30 13:19:41;;;;;;;0.00;0.00;;;;;;;;;;5008112;28;20087;-54
2023/09/30 13:22:09;;;;;;;0.00;0.00;;;;;;;;;;5011411;28;20030;-55
2023/09/30 13:24:39;;;;;;;0.00;0.00;;;;;;;;;;5014675;28;20072;-53
2023/09/30 13:27:05;;;;;;;0.00;0.00;;;;;;;;;;5002516;28;20037;-54
2023/09/30 13:29:31;;;;;;;0.00;0.00;;;;;;;;;;4999208;28;20065;-53
2023/09/30 13:31:57;;;;;;;0.00;0.00;;;;;;;;;;4989903;28;20047;-56
2023/09/30 13:34:23;;;;;;;0.00;0.00;;;;;;;;;;5013813;28;20129;-56
2023/09/30 13:36:49;;;;;;;0.00;0.00;;;;;;;;;;4996486;28;20052;-56
2023/09/30 13:39:17;;;;;;;0.00;0.00;;;;;;;;;;4997268;28;20930;-56
2023/09/30 13:41:43;;;;;;;0.00;0.00;;;;;;;;;;4999059;28;20032;-55
2023/09/30 13:44:11;;;;;;;0.00;0.00;;;;;;;;;;4993855;28;20546;-55
2023/09/30 13:46:37;;;;;;;0.00;0.00;;;;;;;;;;5002921;28;20731;-55
2023/09/30 13:49:03;;;;;;;0.00;0.00;;;;;;;;;;4995697;28;20121;-52
2023/09/30 13:51:30;;;;;;;0.00;0.00;;;;;;;;;;4993284;28;20033;-53
2023/09/30 13:53:56;;;;;;;0.00;0.00;;;;;;;;;;4991389;28;20035;-53
2023/09/30 13:56:22;;;;;;;0.00;0.00;;;;;;;;;;4989504;28;20766;-54
2023/09/30 13:58:48;;;;;;;0.00;0.00;;;;;;;;;;5005113;28;20038;-53
2023/09/30 14:01:15;;;;;;;0.00;0.00;;;;;;;;;;5002116;28;20038;-55
2023/09/30 14:03:41;;;;;;;0.00;0.00;;;;;;;;;;4996322;28;20144;-53
2023/09/30 14:06:16;;;;;;;0.00;0.00;;;;;;;;;;4991838;28;20133;-53
2023/09/30 14:08:45;;;;;;;0.00;0.00;;;;;;;;;;4995754;28;21175;-54